Time;durP1;ratioP1;P1;durP2;ratioP2;P2;SDS_P1;SDS_P2;PMS_P1;PMS_P2;Temp;Humidity;BMP_temperature;BMP_pressure;BME280_temperature;BME280_humidity;BME280_pressure;Samples;Min_cycle;Max_cycle;Signal;HPM_P1;HPM_P2
2023/08/14 00:02:22;;;;;;;6.78;6.18;;;;;;;19.04;100.00;99506.38;6039465;23;20174;-76
2023/08/14 00:04:49;;;;;;;7.05;6.32;;;;;;;19.00;100.00;99509.91;6038590;23;20176;-77
2023/08/14 00:07:16;;;;;;;6.20;5.70;;;;;;;18.99;100.00;99508.31;6039303;23;20271;-76
2023/08/14 00:09:43;;;;;;;7.07;6.33;;;;;;;18.97;100.00;99511.31;6038968;23;20204;-77
2023/08/14 00:12:11;;;;;;;7.00;6.43;;;;;;;18.95;100.00;99499.06;6039169;23;20196;-77
2023/08/14 00:14:39;;;;;;;6.72;6.32;;;;;;;18.93;100.00;99502.09;6038879;23;20249;-76
2023/08/14 00:17:07;;;;;;;6.93;6.43;;;;;;;18.91;100.00;99505.06;6039016;23;20177;-77
2023/08/14 00:19:34;;;;;;;6.50;6.00;;;;;;;18.90;100.00;99499.91;6038875;23;20245;-78
2023/08/14 00:22:02;;;;;;;6.97;6.47;;;;;;;18.87;100.00;99495.03;6039112;23;20195;-78
2023/08/14 00:24:29;;;;;;;7.33;6.70;;;;;;;18.83;100.00;99496.69;6014294;23;20515;-78
2023/08/14 00:26:57;;;;;;;7.63;6.93;;;;;;;18.78;100.00;99497.53;6039032;23;20216;-78
2023/08/14 00:29:26;;;;;;;6.53;6.13;;;;;;;18.75;100.00;99491.84;6013790;23;20180;-79
2023/08/14 00:31:53;;;;;;;6.87;6.33;;;;;;;18.70;100.00;99497.28;6038838;23;20196;-78
2023/08/14 00:34:21;;;;;;;7.27;6.50;;;;;;;18.68;100.00;99497.53;6013875;23;20183;-78
2023/08/14 00:36:48;;;;;;;6.93;6.20;;;;;;;18.67;100.00;99497.81;6038951;23;20181;-78
2023/08/14 00:39:15;;;;;;;7.03;6.33;;;;;;;18.64;100.00;99485.63;6038926;23;20173;-78
2023/08/14 00:41:43;;;;;;;6.90;6.40;;;;;;;18.63;100.00;99491.31;6038937;23;20171;-78
2023/08/14 00:44:10;;;;;;;7.17;6.67;;;;;;;18.60;100.00;99495.41;6038940;23;20195;-79
2023/08/14 00:46:38;;;;;;;7.33;6.67;;;;;;;18.59;100.00;99499.19;6038960;23;20334;-77
2023/08/14 00:49:06;;;;;;;6.80;6.40;;;;;;;18.60;100.00;99500.84;6013703;23;20176;-78
2023/08/14 00:51:35;;;;;;;7.33;6.73;;;;;;;18.55;100.00;99503.56;6038847;23;20682;-78
2023/08/14 00:54:03;;;;;;;7.33;6.73;;;;;;;18.54;100.00;99510.06;6013500;23;20174;-78
2023/08/14 00:56:31;;;;;;;7.30;6.67;;;;;;;18.46;100.00;99510.59;6039079;23;20169;-78
2023/08/14 00:59:00;;;;;;;6.87;6.47;;;;;;;18.38;100.00;99505.72;6038798;23;20609;-78
2023/08/14 01:01:28;;;;;;;6.97;6.47;;;;;;;18.39;100.00;99515.47;6038641;23;20180;-78
2023/08/14 01:03:55;;;;;;;7.63;6.63;;;;;;;18.35;100.00;99514.38;6038438;23;20170;-78
2023/08/14 01:06:23;;;;;;;6.63;6.13;;;;;;;18.34;100.00;99519.00;6013311;23;20533;-76
2023/08/14 01:08:50;;;;;;;7.37;6.67;;;;;;;18.32;100.00;99514.94;6038862;23;20167;-77
2023/08/14 01:11:28;;;;;;;6.30;5.90;;;;;;;18.25;100.00;99509.78;5990805;23;20178;-77
2023/08/14 01:14:11;;;;;;;7.47;6.87;;;;;;;18.24;100.00;99510.09;5990209;23;20173;-79
2023/08/14 01:16:42;;;;;;;7.10;6.60;;;;;;;18.20;100.00;99511.69;6013717;23;20604;-77
2023/08/14 01:19:19;;;;;;;6.80;6.30;;;;;;;18.10;100.00;99512.53;6013817;23;20203;-77
2023/08/14 01:22:18;;;;;;;7.87;7.03;;;;;;;18.07;100.00;99513.06;6014376;23;20175;-77
2023/08/14 01:25:13;;;;;;;8.03;7.43;;;;;;;18.06;100.00;99516.84;6038487;23;20626;-77
2023/08/14 01:27:42;;;;;;;8.30;7.57;;;;;;;17.97;100.00;99510.34;6038575;23;20201;-77
2023/08/14 01:30:11;;;;;;;7.63;7.03;;;;;;;17.93;100.00;99506.53;6013878;23;20180;-78
2023/08/14 01:32:38;;;;;;;7.20;6.70;;;;;;;17.92;100.00;99519.28;6038218;23;20195;-76
2023/08/14 01:35:08;;;;;;;7.87;7.17;;;;;;;17.86;100.00;99509.53;6013439;23;20240;-76
2023/08/14 01:38:08;;;;;;;7.00;6.50;;;;;;;17.82;100.00;99513.88;6036936;23;20174;-77
2023/08/14 01:40:42;;;;;;;7.63;6.93;;;;;;;17.81;100.00;99508.72;6013605;23;20172;-77
2023/08/14 01:43:27;;;;;;;7.37;6.77;;;;;;;17.77;100.00;99507.63;6038647;23;20202;-77
2023/08/14 01:45:56;;;;;;;7.57;7.03;;;;;;;17.76;100.00;99506.00;6013627;23;20149;-78
2023/08/14 01:48:24;;;;;;;7.30;6.80;;;;;;;17.71;100.00;99500.56;6013535;23;20182;-77
2023/08/14 01:50:53;;;;;;;7.43;6.83;;;;;;;17.70;100.00;99501.63;6013475;23;20686;-78
2023/08/14 01:53:22;;;;;;;7.93;7.23;;;;;;;17.70;100.00;99502.47;5990491;23;20209;-78
2023/08/14 01:55:50;;;;;;;8.07;7.37;;;;;;;17.68;100.00;99503.81;6038325;23;20169;-77
2023/08/14 01:58:18;;;;;;;7.67;7.17;;;;;;;17.67;100.00;99511.13;5989992;23;20180;-78
2023/08/14 02:00:45;;;;;;;8.40;7.60;;;;;;;17.66;100.00;99512.22;6012950;23;20176;-76
2023/08/14 02:03:12;;;;;;;8.00;7.30;;;;;;;17.65;100.00;99517.88;6038214;23;20172;-77
2023/08/14 02:05:40;;;;;;;8.17;7.47;;;;;;;17.62;100.00;99519.25;6036516;23;20234;-77
2023/08/14 02:08:07;;;;;;;7.97;7.30;;;;;;;17.58;100.00;99521.69;6037859;23;20273;-76
2023/08/14 02:10:35;;;;;;;8.17;7.47;;;;;;;17.54;100.00;99525.16;6037879;23;20191;-78
2023/08/14 02:13:05;;;;;;;8.57;7.53;;;;;;;17.52;100.00;99528.13;6012930;23;20180;-78
2023/08/14 02:15:34;;;;;;;8.53;7.73;;;;;;;17.51;100.00;99529.22;6012780;23;20172;-76
2023/08/14 02:18:05;;;;;;;7.73;7.13;;;;;;;17.49;100.00;99536.00;6037808;23;20179;-76
2023/08/14 02:20:32;;;;;;;8.20;7.60;;;;;;;17.47;100.00;99535.44;6037650;23;20570;-76
2023/08/14 02:23:00;;;;;;;8.80;8.00;;;;;;;17.44;100.00;99525.13;6037798;23;20267;-76
2023/08/14 02:25:29;;;;;;;9.10;8.40;;;;;;;17.42;100.00;99519.97;6037809;23;20263;-78
2023/08/14 02:27:56;;;;;;;8.60;8.00;;;;;;;17.40;100.00;99527.56;6037581;23;20605;-77
2023/08/14 02:30:23;;;;;;;8.60;8.00;;;;;;;17.40;100.00;99532.16;6012790;23;20237;-78
2023/08/14 02:32:50;;;;;;;8.90;8.17;;;;;;;17.40;100.00;99516.75;6037684;23;20224;-76
2023/08/14 02:35:17;;;;;;;8.03;7.43;;;;;;;17.32;100.00;99530.78;6037646;23;20608;-76
2023/08/14 02:37:44;;;;;;;8.90;8.13;;;;;;;17.30;100.00;99521.31;6038028;23;20180;-76
2023/08/14 02:40:15;;;;;;;8.70;8.00;;;;;;;17.25;100.00;99519.41;6012670;23;20652;-76
2023/08/14 02:42:43;;;;;;;8.67;8.07;;;;;;;17.24;100.00;99525.88;6038302;23;20586;-78
2023/08/14 02:45:10;;;;;;;8.47;7.87;;;;;;;17.22;100.00;99516.41;6037911;23;20178;-76
2023/08/14 02:47:38;;;;;;;8.73;7.93;;;;;;;17.20;100.00;99526.69;6037928;23;20218;-76
2023/08/14 02:50:08;;;;;;;8.80;8.17;;;;;;;17.18;100.00;99526.94;6013358;23;20181;-77
2023/08/14 02:52:35;;;;;;;8.70;8.10;;;;;;;17.12;100.00;99526.09;6012918;23;20630;-78
2023/08/14 02:55:04;;;;;;;8.67;7.97;;;;;;;17.13;100.00;99530.44;6037590;23;20201;-78
2023/08/14 02:57:31;;;;;;;8.87;8.20;;;;;;;17.09;100.00;99534.75;6037980;23;20171;-78
2023/08/14 02:59:59;;;;;;;8.57;7.97;;;;;;;17.09;100.00;99536.63;6037947;23;20163;-80
2023/08/14 03:02:26;;;;;;;9.07;8.47;;;;;;;17.05;100.00;99530.94;6013095;23;20169;-77
2023/08/14 03:04:55;;;;;;;9.63;8.80;;;;;;;17.06;100.00;99539.88;6012543;23;20182;-77
2023/08/14 03:07:22;;;;;;;8.50;7.80;;;;;;;17.03;100.00;99545.84;6037703;23;20214;-78
2023/08/14 03:09:49;;;;;;;9.83;8.93;;;;;;;17.01;100.00;99551.50;6037767;23;20202;-77
2023/08/14 03:12:17;;;;;;;9.03;8.40;;;;;;;16.95;100.00;99539.00;6012849;23;20204;-77
2023/08/14 03:14:45;;;;;;;8.97;8.20;;;;;;;16.99;100.00;99545.53;6037823;23;20625;-78
2023/08/14 03:17:12;;;;;;;9.27;8.50;;;;;;;16.97;100.00;99546.88;6037961;23;20194;-78
2023/08/14 03:19:40;;;;;;;8.70;7.93;;;;;;;16.97;100.00;99538.75;6012354;23;20707;-78
2023/08/14 03:22:08;;;;;;;9.00;8.30;;;;;;;16.97;100.00;99538.75;6037634;23;20172;-76
2023/08/14 03:24:35;;;;;;;9.20;8.50;;;;;;;16.93;100.00;99538.47;6037188;23;20169;-77
2023/08/14 03:27:02;;;;;;;9.23;8.47;;;;;;;16.94;100.00;99544.69;6037422;23;20207;-77
2023/08/14 03:29:29;;;;;;;9.20;8.50;;;;;;;16.91;100.00;99546.03;6037460;23;20197;-78
2023/08/14 03:31:56;;;;;;;9.20;8.50;;;;;;;16.89;100.00;99550.09;6037580;23;20196;-78
2023/08/14 03:34:24;;;;;;;8.80;8.20;;;;;;;16.87;100.00;99561.16;6012064;23;20641;-78
2023/08/14 03:36:51;;;;;;;9.87;9.07;;;;;;;16.85;100.00;99560.59;6037528;23;20689;-79
2023/08/14 03:39:19;;;;;;;9.73;9.03;;;;;;;16.86;100.00;99558.72;6037786;23;20175;-78
2023/08/14 03:41:46;;;;;;;9.47;8.73;;;;;;;16.88;100.00;99564.69;6039347;23;20171;-78
2023/08/14 03:44:14;;;;;;;9.67;8.97;;;;;;;16.88;100.00;99568.22;6013581;23;20195;-79
2023/08/14 03:46:41;;;;;;;9.50;8.83;;;;;;;16.89;100.00;99574.44;6039078;23;20181;-78
2023/08/14 03:49:09;;;;;;;9.17;8.57;;;;;;;16.90;100.00;99576.88;6014049;23;20170;-77
2023/08/14 03:51:37;;;;;;;9.90;9.10;;;;;;;16.91;100.00;99580.41;6039125;23;20215;-77
2023/08/14 03:54:05;;;;;;;9.63;8.90;;;;;;;16.94;100.00;99579.84;6013932;23;20613;-78
2023/08/14 03:56:32;;;;;;;9.57;8.97;;;;;;;16.94;100.00;99574.44;6039100;23;20178;-79
2023/08/14 03:58:59;;;;;;;10.13;9.30;;;;;;;16.97;100.00;99574.75;6039057;23;20163;-80
2023/08/14 04:01:27;;;;;;;9.40;8.80;;;;;;;17.03;100.00;99570.97;6039060;23;20225;-79
2023/08/14 04:03:54;;;;;;;10.20;9.40;;;;;;;17.08;100.00;99575.59;6013901;23;20176;-77
2023/08/14 04:06:21;;;;;;;10.07;9.33;;;;;;;17.13;100.00;99575.63;6039172;23;20205;-77
2023/08/14 04:08:49;;;;;;;9.47;8.77;;;;;;;17.20;100.00;99578.13;6038822;23;20188;-77
2023/08/14 04:11:16;;;;;;;10.17;9.47;;;;;;;17.21;100.00;99575.16;6038961;23;20255;-77
2023/08/14 04:13:43;;;;;;;9.87;9.07;;;;;;;17.27;100.00;99587.63;6039023;23;20172;-77
2023/08/14 04:16:11;;;;;;;10.03;9.13;;;;;;;17.30;100.00;99586.28;6038624;23;20618;-77
2023/08/14 04:18:38;;;;;;;9.90;9.20;;;;;;;17.38;100.00;99588.47;6014066;23;20185;-77
2023/08/14 04:21:07;;;;;;;10.83;9.93;;;;;;;17.37;100.00;99593.06;6038691;23;20175;-78
2023/08/14 04:23:36;;;;;;;10.53;9.70;;;;;;;17.47;100.00;99595.00;6013669;23;20191;-77
2023/08/14 04:26:04;;;;;;;10.43;9.73;;;;;;;17.51;100.00;99590.69;6013849;23;20180;-78
2023/08/14 04:28:31;;;;;;;10.27;9.47;;;;;;;17.59;100.00;99591.03;6013730;23;20299;-78
2023/08/14 04:30:58;;;;;;;9.37;8.67;;;;;;;17.73;100.00;99596.75;6038916;23;20250;-80
2023/08/14 04:33:26;;;;;;;10.63;9.73;;;;;;;17.83;100.00;99588.66;5986313;23;20259;-76
2023/08/14 04:35:54;;;;;;;10.20;9.43;;;;;;;17.90;100.00;99594.63;6010719;23;20256;-77
2023/08/14 04:38:22;;;;;;;10.57;9.67;;;;;;;18.03;100.00;99599.53;6010856;23;20196;-77
2023/08/14 04:40:52;;;;;;;10.07;9.37;;;;;;;18.13;100.00;99601.44;5986006;23;20621;-77
2023/08/14 04:43:20;;;;;;;10.33;9.53;;;;;;;18.27;100.00;99590.88;5985991;23;20196;-77
2023/08/14 04:45:47;;;;;;;10.13;9.33;;;;;;;18.44;100.00;99599.56;5985615;23;20287;-77
2023/08/14 04:48:15;;;;;;;10.00;9.20;;;;;;;18.60;100.00;99609.38;5985490;23;20304;-77
2023/08/14 04:50:44;;;;;;;10.37;9.47;;;;;;;18.77;100.00;99606.34;5985257;23;20171;-77
2023/08/14 04:53:12;;;;;;;10.07;9.37;;;;;;;18.90;100.00;99603.88;6010908;23;20172;-78
2023/08/14 04:55:40;;;;;;;9.77;8.93;;;;;;;19.05;100.00;99605.75;5962630;23;20170;-77
2023/08/14 04:58:08;;;;;;;9.73;9.00;;;;;;;19.19;100.00;99608.69;5985455;23;20556;-78
2023/08/14 05:00:37;;;;;;;9.00;8.30;;;;;;;19.31;100.00;99607.31;6010543;23;20247;-77
2023/08/14 05:03:08;;;;;;;9.53;8.83;;;;;;;19.48;100.00;99601.56;5985589;23;20557;-77
2023/08/14 05:05:35;;;;;;;9.10;8.33;;;;;;;19.64;100.00;99596.88;5985386;23;20181;-77
2023/08/14 05:08:03;;;;;;;10.03;9.23;;;;;;;19.81;100.00;99596.50;5985673;23;20245;-77
2023/08/14 05:10:34;;;;;;;9.63;8.93;;;;;;;19.98;100.00;99597.75;5985313;23;20259;-78
2023/08/14 05:13:02;;;;;;;9.47;8.67;;;;;;;20.16;100.00;99604.44;5985395;23;20173;-78
2023/08/14 05:15:30;;;;;;;9.57;8.87;;;;;;;20.34;100.00;99597.56;5985098;23;20277;-77
2023/08/14 05:17:57;;;;;;;9.23;8.53;;;;;;;20.54;100.00;99597.38;5985406;23;20238;-77
2023/08/14 05:20:25;;;;;;;9.10;8.40;;;;;;;20.62;100.00;99597.56;5985356;23;20243;-78
2023/08/14 05:22:52;;;;;;;9.43;8.53;;;;;;;20.66;100.00;99600.53;5985506;23;20174;-77
2023/08/14 05:25:19;;;;;;;8.68;7.93;;;;;;;20.71;100.00;99619.56;6010238;23;20163;-77
2023/08/14 05:27:47;;;;;;;8.23;7.53;;;;;;;20.76;100.00;99621.41;6010505;23;20230;-78
2023/08/14 05:30:16;;;;;;;8.95;8.25;;;;;;;20.85;100.00;99617.78;6010208;23;20171;-77
2023/08/14 05:32:46;;;;;;;8.48;7.78;;;;;;;21.00;100.00;99606.72;6029560;23;20513;-77
2023/08/14 05:35:16;;;;;;;9.35;8.68;;;;;;;21.15;100.00;99615.84;6013555;23;20513;-77
2023/08/14 05:37:44;;;;;;;8.75;8.05;;;;;;;21.34;100.00;99608.56;6038553;23;20612;-77
2023/08/14 05:40:12;;;;;;;8.82;8.23;;;;;;;21.51;100.00;99608.88;6038517;23;20244;-77
2023/08/14 05:42:39;;;;;;;8.95;8.35;;;;;;;21.69;100.00;99599.13;6038416;23;20186;-76
2023/08/14 05:45:06;;;;;;;8.85;8.25;;;;;;;21.80;100.00;99600.59;6038184;23;20166;-77
2023/08/14 05:47:37;;;;;;;8.70;8.10;;;;;;;21.98;100.00;99605.28;6038298;23;20186;-79
2023/08/14 05:50:07;;;;;;;8.43;7.82;;;;;;;22.16;100.00;99604.47;6037859;23;20172;-77
2023/08/14 05:52:35;;;;;;;8.60;7.90;;;;;;;22.34;100.00;99616.50;6038096;23;20170;-77
2023/08/14 05:55:02;;;;;;;9.02;8.25;;;;;;;22.30;100.00;99616.25;6037853;23;20173;-76
2023/08/14 05:57:29;;;;;;;8.60;7.90;;;;;;;22.44;100.00;99610.88;6037997;23;20181;-78
2023/08/14 05:59:57;;;;;;;8.70;8.10;;;;;;;22.47;100.00;99613.00;6037972;23;20554;-77
2023/08/14 06:02:25;;;;;;;8.05;7.55;;;;;;;22.58;100.00;99619.94;6038114;23;20170;-76
2023/08/14 06:04:52;;;;;;;8.85;8.23;;;;;;;22.69;100.00;99602.25;6037859;23;20172;-76
2023/08/14 06:07:19;;;;;;;9.35;8.52;;;;;;;22.72;100.00;99606.34;6038063;23;20197;-76
2023/08/14 06:09:47;;;;;;;7.97;7.32;;;;;;;22.90;100.00;99615.56;6038150;23;20511;-76
2023/08/14 06:12:16;;;;;;;8.40;7.80;;;;;;;23.03;100.00;99621.06;6013679;23;20226;-77
2023/08/14 06:14:45;;;;;;;7.68;7.10;;;;;;;23.13;100.00;99609.13;6038043;23;20171;-77
2023/08/14 06:17:12;;;;;;;7.93;7.43;;;;;;;23.31;100.00;99612.88;6038259;23;20173;-77
2023/08/14 06:19:41;;;;;;;7.72;7.13;;;;;;;23.38;100.00;99603.16;6037856;23;20177;-78
2023/08/14 06:22:09;;;;;;;7.32;6.82;;;;;;;23.55;100.00;99606.13;6038257;23;20243;-78
2023/08/14 06:24:36;;;;;;;7.38;6.88;;;;;;;23.63;100.00;99604.59;6037843;23;20170;-76
2023/08/14 06:27:03;;;;;;;7.72;7.10;;;;;;;23.77;100.00;99608.09;6038309;23;20243;-76
2023/08/14 06:29:31;;;;;;;7.47;6.88;;;;;;;23.99;100.00;99608.16;6037950;23;20595;-75
2023/08/14 06:31:59;;;;;;;6.97;6.47;;;;;;;24.19;100.00;99604.16;6038112;23;20197;-76
2023/08/14 06:34:28;;;;;;;8.45;6.75;;;;;;;24.32;100.00;99603.31;6038073;23;20204;-76
2023/08/14 06:36:55;;;;;;;7.78;6.28;;;;;;;24.45;100.00;99607.91;6038237;23;20173;-77
2023/08/14 06:39:23;;;;;;;7.10;6.47;;;;;;;24.54;100.00;99600.56;6038087;23;20637;-78
2023/08/14 06:41:51;;;;;;;7.00;6.40;;;;;;;24.68;100.00;99605.19;6038454;23;20522;-76
2023/08/14 06:44:21;;;;;;;6.55;6.05;;;;;;;24.83;100.00;99607.50;6012730;23;20272;-76
2023/08/14 06:46:48;;;;;;;6.03;5.53;;;;;;;24.98;100.00;99599.72;6037843;23;20203;-77
2023/08/14 06:49:16;;;;;;;6.38;5.80;;;;;;;25.13;100.00;99606.72;6037837;23;20711;-78
2023/08/14 06:51:44;;;;;;;6.32;5.82;;;;;;;25.27;100.00;99610.19;6037599;23;20158;-78
2023/08/14 06:54:11;;;;;;;6.07;5.60;;;;;;;25.40;100.00;99612.00;6037993;23;20170;-77
2023/08/14 06:56:38;;;;;;;5.80;5.40;;;;;;;25.49;100.00;99612.00;6037896;23;20169;-78
2023/08/14 06:59:05;;;;;;;6.82;6.20;;;;;;;25.60;100.00;99613.38;6038051;23;20169;-79
2023/08/14 07:01:33;;;;;;;6.53;5.55;;;;;;;25.73;100.00;99606.13;6038115;23;20162;-78
2023/08/14 07:04:00;;;;;;;6.55;6.00;;;;;;;25.84;100.00;99605.53;6038190;23;20197;-79
2023/08/14 07:06:27;;;;;;;6.72;6.22;;;;;;;25.96;100.00;99606.81;6037993;23;20166;-76
2023/08/14 07:08:55;;;;;;;5.50;5.00;;;;;;;26.03;100.00;99607.97;6037749;23;20644;-79
2023/08/14 07:11:23;;;;;;;6.88;5.28;;;;;;;25.97;100.00;99608.44;6038347;23;20170;-78
2023/08/14 07:13:50;;;;;;;5.70;5.20;;;;;;;26.08;100.00;99601.50;6038535;23;20170;-77
2023/08/14 07:16:18;;;;;;;5.72;5.32;;;;;;;26.17;100.00;99594.88;6039596;23;20200;-78
2023/08/14 07:18:46;;;;;;;5.45;5.13;;;;;;;26.36;100.00;99602.81;6040737;23;20174;-78
2023/08/14 07:21:14;;;;;;;5.93;5.45;;;;;;;26.59;100.00;99600.69;6039790;23;20166;-78
2023/08/14 07:23:41;;;;;;;5.28;4.70;;;;;;;26.62;100.00;99608.28;6039758;23;20177;-78
2023/08/14 07:26:12;;;;;;;5.70;5.15;;;;;;;26.74;100.00;99600.16;6039486;23;20166;-78
2023/08/14 07:28:40;;;;;;;5.50;4.90;;;;;;;26.89;100.00;99609.84;6039660;23;20254;-78
2023/08/14 07:31:08;;;;;;;5.45;5.00;;;;;;;27.03;100.00;99593.97;6039154;23;20162;-80
2023/08/14 07:33:36;;;;;;;4.53;4.13;;;;;;;27.21;100.00;99595.50;6039983;23;20534;-79
2023/08/14 07:36:04;;;;;;;4.50;4.10;;;;;;;27.39;100.00;99597.03;6039512;23;20173;-78
2023/08/14 07:38:32;;;;;;;4.65;4.20;;;;;;;27.56;100.00;99599.72;6039096;23;20642;-78
2023/08/14 07:40:59;;;;;;;4.68;4.28;;;;;;;27.71;100.00;99600.28;6039234;23;20174;-78
2023/08/14 07:43:27;;;;;;;4.30;3.78;;;;;;;27.80;100.00;99601.03;6038633;23;20224;-78
2023/08/14 07:45:54;;;;;;;5.03;4.50;;;;;;;27.80;100.00;99593.59;6037591;23;20181;-77
2023/08/14 07:48:23;;;;;;;5.05;4.30;;;;;;;27.93;100.00;99586.22;6038868;23;20214;-77
2023/08/14 07:50:54;;;;;;;4.07;3.78;;;;;;;27.92;100.00;99588.16;6039251;23;20166;-78
2023/08/14 07:53:21;;;;;;;4.40;4.00;;;;;;;27.93;100.00;99597.22;6039448;23;20166;-77
2023/08/14 07:55:48;;;;;;;4.97;3.80;;;;;;;27.97;100.00;99587.94;6038979;23;20512;-79
2023/08/14 07:58:17;;;;;;;4.00;3.70;;;;;;;28.06;100.00;99584.31;6037416;23;20178;-78
2023/08/14 08:00:45;;;;;;;4.43;4.03;;;;;;;28.21;100.00;99584.56;6037328;23;20662;-78
2023/08/14 08:03:13;;;;;;;4.47;3.72;;;;;;;28.36;97.31;99580.38;6039331;23;20170;-80
2023/08/14 08:05:42;;;;;;;3.67;3.38;;;;;;;28.35;95.16;99576.81;6039622;23;20268;-79
2023/08/14 08:08:09;;;;;;;4.00;3.70;;;;;;;28.34;96.18;99571.63;6039290;23;20190;-79
2023/08/14 08:10:37;;;;;;;4.07;3.67;;;;;;;28.40;97.86;99576.59;6038669;23;20257;-79
2023/08/14 08:13:04;;;;;;;4.88;4.00;;;;;;;28.52;95.67;99566.75;6013651;23;20170;-78
2023/08/14 08:15:31;;;;;;;5.40;3.55;;;;;;;28.67;92.76;99571.63;6039455;23;20225;-78
2023/08/14 08:17:58;;;;;;;3.92;3.33;;;;;;;28.76;90.24;99575.13;6038957;23;20207;-79
2023/08/14 08:20:26;;;;;;;5.47;3.70;;;;;;;28.80;87.37;99574.09;6039005;23;20170;-77
2023/08/14 08:22:55;;;;;;;5.03;3.45;;;;;;;28.84;86.69;99574.19;6039332;23;20237;-79
2023/08/14 08:25:22;;;;;;;3.88;3.58;;;;;;;28.79;89.16;99577.19;6039228;23;20170;-79
2023/08/14 08:27:49;;;;;;;4.28;3.30;;;;;;;28.87;86.40;99577.09;6014117;23;20538;-79
2023/08/14 08:30:17;;;;;;;3.78;3.40;;;;;;;28.92;85.15;99572.50;6039007;23;20479;-79
2023/08/14 08:32:46;;;;;;;3.70;3.17;;;;;;;28.95;86.00;99578.13;6038639;23;20532;-83
2023/08/14 08:35:14;;;;;;;3.45;3.15;;;;;;;29.05;84.26;99583.22;6038787;23;20176;-80
2023/08/14 08:37:41;;;;;;;3.70;3.30;;;;;;;29.11;83.73;99576.34;6039122;23;20170;-80
2023/08/14 08:40:09;;;;;;;3.30;2.90;;;;;;;29.20;82.61;99567.94;6038896;23;20657;-79
2023/08/14 08:42:36;;;;;;;4.68;3.40;;;;;;;29.21;83.72;99570.34;6013920;23;20579;-81
2023/08/14 08:45:04;;;;;;;4.47;3.10;;;;;;;29.29;82.76;99571.38;6013838;23;20162;-80
2023/08/14 08:47:36;;;;;;;3.47;3.15;;;;;;;29.22;83.31;99571.16;6038968;23;20174;-79
2023/08/14 08:50:04;;;;;;;3.40;3.10;;;;;;;29.12;78.93;99569.66;6014079;23;20233;-79
2023/08/14 08:52:35;;;;;;;4.32;3.28;;;;;;;29.23;79.28;99575.53;6039078;23;20537;-79
2023/08/14 08:55:02;;;;;;;3.65;3.22;;;;;;;29.29;80.98;99579.66;6039207;23;20551;-80
2023/08/14 08:57:30;;;;;;;4.28;3.10;;;;;;;29.39;80.83;99576.47;6039130;23;20192;-80
2023/08/14 08:59:59;;;;;;;4.53;3.30;;;;;;;29.52;77.57;99575.31;6014567;23;20214;-81
2023/08/14 09:02:28;;;;;;;3.80;3.00;;;;;;;29.56;75.09;99580.94;6038245;23;20616;-80
2023/08/14 09:04:55;;;;;;;3.17;2.88;;;;;;;29.65;74.77;99576.09;6039276;23;20166;-79
2023/08/14 09:07:23;;;;;;;3.50;2.92;;;;;;;29.59;71.99;99574.72;6038820;23;20166;-80
2023/08/14 09:09:51;;;;;;;3.15;2.95;;;;;;;29.59;73.33;99574.72;6036690;23;20186;-79
2023/08/14 09:12:18;;;;;;;3.30;3.10;;;;;;;29.64;71.78;99569.78;6036775;23;20174;-79
2023/08/14 09:15:01;;;;;;;3.35;2.90;;;;;;;29.74;72.77;99568.50;6038722;23;20166;-78
2023/08/14 09:17:29;;;;;;;3.47;3.20;;;;;;;29.74;71.17;99560.22;6014305;23;20218;-80
2023/08/14 09:19:56;;;;;;;4.10;2.90;;;;;;;29.87;69.10;99550.72;6011398;23;20170;-80
2023/08/14 09:22:27;;;;;;;3.42;2.92;;;;;;;29.87;68.38;99564.53;6037927;23;20560;-78
2023/08/14 09:24:57;;;;;;;2.67;2.47;;;;;;;29.90;69.04;99557.56;6039050;23;20174;-80
2023/08/14 09:27:27;;;;;;;2.85;2.65;;;;;;;29.87;67.35;99556.25;6014094;23;20170;-81
2023/08/14 09:29:55;;;;;;;2.90;2.63;;;;;;;29.93;68.32;99556.84;6038348;23;20232;-80
2023/08/14 09:32:23;;;;;;;3.28;2.95;;;;;;;30.00;66.95;99552.34;6038815;23;20594;-80
2023/08/14 09:35:01;;;;;;;3.17;2.88;;;;;;;29.93;65.72;99557.66;6013803;23;20233;-78
2023/08/14 09:37:29;;;;;;;3.58;3.03;;;;;;;29.95;65.88;99555.38;6038321;23;20395;-80
2023/08/14 09:40:16;;;;;;;3.42;2.95;;;;;;;30.07;65.06;99560.03;6038489;23;20176;-78
2023/08/14 09:42:45;;;;;;;2.90;2.70;;;;;;;30.06;64.44;99545.41;6038462;23;20196;-78
2023/08/14 09:45:14;;;;;;;3.72;3.20;;;;;;;30.10;66.64;99549.06;6037701;23;20181;-79
2023/08/14 09:47:42;;;;;;;5.18;2.78;;;;;;;30.22;64.45;99555.72;6011914;23;20209;-78
2023/08/14 09:50:15;;;;;;;3.65;2.70;;;;;;;30.43;64.07;99553.53;6036776;23;20249;-76
2023/08/14 09:52:44;;;;;;;3.60;2.88;;;;;;;30.42;63.24;99551.97;6036124;23;20193;-79
2023/08/14 09:55:14;;;;;;;2.97;2.78;;;;;;;30.55;63.44;99556.28;6037870;23;20176;-79
2023/08/14 09:57:42;;;;;;;4.32;3.00;;;;;;;30.64;62.02;99554.16;6013503;23;20150;-77
2023/08/14 10:00:12;;;;;;;3.78;2.85;;;;;;;30.71;61.88;99556.28;6037335;23;20177;-79
2023/08/14 10:02:41;;;;;;;5.40;2.70;;;;;;;30.85;61.22;99565.78;6038594;23;20166;-80
2023/08/14 10:05:09;;;;;;;2.90;2.50;;;;;;;30.82;60.27;99563.72;6038063;23;20170;-77
2023/08/14 10:07:38;;;;;;;6.82;3.00;;;;;;;30.79;60.11;99558.09;6013653;23;20177;-77
2023/08/14 10:10:07;;;;;;;4.45;2.72;;;;;;;30.86;60.12;99552.75;6013759;23;20530;-77
2023/08/14 10:12:56;;;;;;;2.97;2.65;;;;;;;30.95;60.78;99551.41;6013704;23;20169;-77
2023/08/14 10:15:29;;;;;;;6.68;2.70;;;;;;;31.05;59.61;99561.16;6037920;23;20597;-77
2023/08/14 10:18:04;;;;;;;3.60;2.95;;;;;;;31.02;58.20;99548.88;6012013;23;20154;-80
2023/08/14 10:20:34;;;;;;;3.28;2.97;;;;;;;31.08;58.52;99554.91;6013289;23;20210;-77
2023/08/14 10:23:02;;;;;;;3.35;2.65;;;;;;;31.06;59.82;99548.13;6038326;23;20173;-80
2023/08/14 10:25:30;;;;;;;3.80;2.78;;;;;;;31.21;60.37;99541.81;6038408;23;20261;-80
2023/08/14 10:27:57;;;;;;;2.85;2.60;;;;;;;31.23;59.35;99545.81;6037909;23;20190;-79
2023/08/14 10:30:25;;;;;;;4.57;2.97;;;;;;;31.32;58.84;99548.38;6036537;23;20209;-80
2023/08/14 10:32:53;;;;;;;4.03;2.90;;;;;;;31.45;57.86;99550.66;6037794;23;20276;-80
2023/08/14 10:35:21;;;;;;;3.42;2.80;;;;;;;31.33;57.50;99550.00;6037291;23;20174;-79
2023/08/14 10:37:48;;;;;;;3.05;2.85;;;;;;;31.39;57.12;99548.56;6038021;23;20212;-80
2023/08/14 10:40:35;;;;;;;3.97;3.13;;;;;;;31.46;56.39;99541.22;6037968;23;20170;-80
2023/08/14 10:43:06;;;;;;;2.85;2.63;;;;;;;31.51;57.71;99542.91;6037746;23;20190;-80
2023/08/14 10:45:34;;;;;;;4.47;2.53;;;;;;;31.60;56.99;99545.50;6013394;23;20178;-80
2023/08/14 10:48:08;;;;;;;3.15;2.80;;;;;;;31.58;57.06;99542.28;6037609;23;20225;-79
2023/08/14 10:50:36;;;;;;;2.92;2.55;;;;;;;31.54;54.41;99544.97;6039224;23;20189;-79
2023/08/14 10:53:04;;;;;;;3.08;2.72;;;;;;;31.47;54.42;99537.28;6040195;23;20166;-79
2023/08/14 10:55:40;;;;;;;2.63;2.42;;;;;;;31.58;52.83;99545.06;6039902;23;20162;-79
2023/08/14 10:58:33;;;;;;;2.83;2.63;;;;;;;31.68;53.00;99550.03;6040141;23;20174;-79
2023/08/14 11:01:02;;;;;;;2.78;2.58;;;;;;;31.68;53.94;99542.50;6039979;23;20166;-78
2023/08/14 11:03:30;;;;;;;2.83;2.55;;;;;;;31.79;53.40;99532.47;6039888;23;20159;-78
2023/08/14 11:05:58;;;;;;;3.45;2.70;;;;;;;31.85;52.98;99538.53;6039965;23;20190;-80
2023/08/14 11:08:29;;;;;;;2.90;2.65;;;;;;;31.83;51.89;99549.97;6039831;23;20166;-80
2023/08/14 11:10:57;;;;;;;2.50;2.30;;;;;;;32.04;52.69;99552.41;6040050;23;20150;-80
2023/08/14 11:13:28;;;;;;;2.90;2.70;;;;;;;32.26;53.13;99540.59;6039811;23;20166;-78
2023/08/14 11:15:59;;;;;;;3.95;2.70;;;;;;;32.43;51.47;99538.56;6039886;23;20222;-80
2023/08/14 11:18:27;;;;;;;3.00;2.45;;;;;;;32.45;52.05;99548.09;6040303;23;20174;-79
2023/08/14 11:20:59;;;;;;;3.42;2.50;;;;;;;32.47;51.45;99545.78;6039618;23;20166;-78
2023/08/14 11:23:46;;;;;;;2.72;2.50;;;;;;;32.48;50.04;99539.03;6039664;23;20177;-79
2023/08/14 11:26:14;;;;;;;3.33;2.40;;;;;;;32.56;48.92;99532.47;6039641;23;20190;-79
2023/08/14 11:28:42;;;;;;;3.25;2.30;;;;;;;32.53;48.06;99540.69;6039277;23;20178;-78
2023/08/14 11:31:14;;;;;;;5.03;2.70;;;;;;;32.64;48.87;99531.47;6039169;23;20173;-79
2023/08/14 11:33:45;;;;;;;2.70;2.50;;;;;;;32.78;50.01;99532.88;6039499;23;20158;-78
2023/08/14 11:36:12;;;;;;;4.90;2.60;;;;;;;32.75;50.36;99543.56;6039387;23;20189;-78